sensor_id;sensor_type;location;lat;lon;timestamp;P1;durP1;ratioP1;P2;durP2;ratioP2
12601;SDS011;30282;16.436;99.370;2023-04-25T00:01:29;78.83;;;55.30;;
12601;SDS011;30282;16.436;99.370;2023-04-25T00:03:59;78.53;;;55.30;;
12601;SDS011;30282;16.436;99.370;2023-04-25T00:06:28;81.17;;;54.70;;
12601;SDS011;30282;16.436;99.370;2023-04-25T00:08:57;74.37;;;54.40;;
12601;SDS011;30282;16.436;99.370;2023-04-25T00:11:27;68.73;;;53.57;;
12601;SDS011;30282;16.436;99.370;2023-04-25T00:13:58;76.60;;;53.37;;
12601;SDS011;30282;16.436;99.370;2023-04-25T00:16:28;73.40;;;52.27;;
12601;SDS011;30282;16.436;99.370;2023-04-25T00:18:59;79.17;;;51.43;;
12601;SDS011;30282;16.436;99.370;2023-04-25T00:21:31;71.73;;;51.07;;
12601;SDS011;30282;16.436;99.370;2023-04-25T00:24:03;78.67;;;51.23;;
12601;SDS011;30282;16.436;99.370;2023-04-25T00:26:33;69.67;;;51.93;;
12601;SDS011;30282;16.436;99.370;2023-04-25T00:29:04;73.23;;;49.83;;
12601;SDS011;30282;16.436;99.370;2023-04-25T00:31:34;72.90;;;50.07;;
12601;SDS011;30282;16.436;99.370;2023-04-25T00:34:03;62.97;;;45.90;;
12601;SDS011;30282;16.436;99.370;2023-04-25T00:36:33;58.43;;;43.93;;
12601;SDS011;30282;16.436;99.370;2023-04-25T00:39:03;49.43;;;40.07;;
12601;SDS011;30282;16.436;99.370;2023-04-25T00:41:32;54.57;;;43.47;;
12601;SDS011;30282;16.436;99.370;2023-04-25T00:44:04;52.30;;;41.60;;
12601;SDS011;30282;16.436;99.370;2023-04-25T00:46:37;60.70;;;41.10;;
12601;SDS011;30282;16.436;99.370;2023-04-25T00:49:07;53.83;;;40.67;;
12601;SDS011;30282;16.436;99.370;2023-04-25T00:51:41;50.40;;;40.97;;
12601;SDS011;30282;16.436;99.370;2023-04-25T00:54:11;52.67;;;41.10;;
12601;SDS011;30282;16.436;99.370;2023-04-25T00:56:41;55.20;;;44.37;;
12601;SDS011;30282;16.436;99.370;2023-04-25T00:59:12;59.80;;;43.53;;
12601;SDS011;30282;16.436;99.370;2023-04-25T01:01:42;59.60;;;43.10;;
12601;SDS011;30282;16.436;99.370;2023-04-25T01:04:13;67.63;;;44.57;;
12601;SDS011;30282;16.436;99.370;2023-04-25T01:06:42;58.47;;;44.47;;
12601;SDS011;30282;16.436;99.370;2023-04-25T01:09:11;54.57;;;40.43;;
12601;SDS011;30282;16.436;99.370;2023-04-25T01:11:41;44.63;;;39.17;;
12601;SDS011;30282;16.436;99.370;2023-04-25T01:14:14;52.00;;;40.00;;
12601;SDS011;30282;16.436;99.370;2023-04-25T01:16:44;52.00;;;39.83;;
12601;SDS011;30282;16.436;99.370;2023-04-25T01:19:13;56.07;;;40.87;;
12601;SDS011;30282;16.436;99.370;2023-04-25T01:21:46;53.90;;;39.83;;
12601;SDS011;30282;16.436;99.370;2023-04-25T01:24:16;53.10;;;40.07;;
12601;SDS011;30282;16.436;99.370;2023-04-25T01:26:45;50.43;;;39.83;;
12601;SDS011;30282;16.436;99.370;2023-04-25T01:29:19;50.40;;;40.93;;
12601;SDS011;30282;16.436;99.370;2023-04-25T01:31:51;53.63;;;41.17;;
12601;SDS011;30282;16.436;99.370;2023-04-25T01:34:21;46.00;;;39.00;;
12601;SDS011;30282;16.436;99.370;2023-04-25T01:36:52;49.13;;;38.57;;
12601;SDS011;30282;16.436;99.370;2023-04-25T01:39:21;51.83;;;37.90;;
12601;SDS011;30282;16.436;99.370;2023-04-25T01:41:51;49.87;;;40.03;;
12601;SDS011;30282;16.436;99.370;2023-04-25T01:44:20;54.70;;;38.23;;
12601;SDS011;30282;16.436;99.370;2023-04-25T01:46:49;48.40;;;38.60;;
12601;SDS011;30282;16.436;99.370;2023-04-25T01:49:19;48.87;;;39.83;;
12601;SDS011;30282;16.436;99.370;2023-04-25T01:51:49;59.90;;;42.03;;
12601;SDS011;30282;16.436;99.370;2023-04-25T01:54:20;52.00;;;41.93;;
12601;SDS011;30282;16.436;99.370;2023-04-25T01:56:52;51.27;;;41.10;;
12601;SDS011;30282;16.436;99.370;2023-04-25T01:59:24;62.53;;;43.50;;
12601;SDS011;30282;16.436;99.370;2023-04-25T02:01:53;58.83;;;45.20;;
12601;SDS011;30282;16.436;99.370;2023-04-25T02:04:23;60.73;;;44.80;;
12601;SDS011;30282;16.436;99.370;2023-04-25T02:06:54;55.97;;;42.30;;
12601;SDS011;30282;16.436;99.370;2023-04-25T02:09:23;57.03;;;44.10;;
12601;SDS011;30282;16.436;99.370;2023-04-25T02:11:52;53.80;;;43.47;;
12601;SDS011;30282;16.436;99.370;2023-04-25T02:14:21;54.50;;;42.63;;
12601;SDS011;30282;16.436;99.370;2023-04-25T02:16:51;65.97;;;44.93;;
12601;SDS011;30282;16.436;99.370;2023-04-25T02:19:20;52.57;;;44.03;;
12601;SDS011;30282;16.436;99.370;2023-04-25T02:21:49;54.63;;;44.20;;
12601;SDS011;30282;16.436;99.370;2023-04-25T02:24:20;56.10;;;44.07;;
12601;SDS011;30282;16.436;99.370;2023-04-25T02:26:49;56.10;;;45.17;;
12601;SDS011;30282;16.436;99.370;2023-04-25T02:29:18;51.70;;;43.07;;
12601;SDS011;30282;16.436;99.370;2023-04-25T02:31:48;48.30;;;39.17;;
12601;SDS011;30282;16.436;99.370;2023-04-25T02:34:17;49.80;;;38.13;;
12601;SDS011;30282;16.436;99.370;2023-04-25T02:36:48;50.63;;;37.87;;
12601;SDS011;30282;16.436;99.370;2023-04-25T02:39:17;48.77;;;39.00;;
12601;SDS011;30282;16.436;99.370;2023-04-25T02:41:48;50.27;;;40.07;;
12601;SDS011;30282;16.436;99.370;2023-04-25T02:44:17;45.13;;;39.80;;
12601;SDS011;30282;16.436;99.370;2023-04-25T02:46:47;43.93;;;36.43;;
12601;SDS011;30282;16.436;99.370;2023-04-25T02:49:16;50.13;;;40.13;;
12601;SDS011;30282;16.436;99.370;2023-04-25T02:51:45;46.73;;;39.67;;
12601;SDS011;30282;16.436;99.370;2023-04-25T02:54:14;51.80;;;40.73;;
12601;SDS011;30282;16.436;99.370;2023-04-25T02:56:45;49.40;;;39.77;;
12601;SDS011;30282;16.436;99.370;2023-04-25T02:59:14;57.47;;;39.77;;
12601;SDS011;30282;16.436;99.370;2023-04-25T03:01:43;46.97;;;40.00;;
12601;SDS011;30282;16.436;99.370;2023-04-25T03:04:13;46.23;;;39.13;;
12601;SDS011;30282;16.436;99.370;2023-04-25T03:06:42;45.40;;;39.47;;
12601;SDS011;30282;16.436;99.370;2023-04-25T03:09:11;49.17;;;38.53;;
12601;SDS011;30282;16.436;99.370;2023-04-25T03:11:40;41.70;;;37.13;;
12601;SDS011;30282;16.436;99.370;2023-04-25T03:14:11;45.03;;;37.03;;
12601;SDS011;30282;16.436;99.370;2023-04-25T03:16:41;45.30;;;38.50;;
12601;SDS011;30282;16.436;99.370;2023-04-25T03:19:10;44.97;;;36.43;;
12601;SDS011;30282;16.436;99.370;2023-04-25T03:21:41;48.47;;;35.60;;
12601;SDS011;30282;16.436;99.370;2023-04-25T03:24:10;44.20;;;36.27;;
12601;SDS011;30282;16.436;99.370;2023-04-25T03:26:40;43.77;;;37.23;;
12601;SDS011;30282;16.436;99.370;2023-04-25T03:29:09;39.87;;;33.83;;
12601;SDS011;30282;16.436;99.370;2023-04-25T03:31:40;41.70;;;32.50;;
12601;SDS011;30282;16.436;99.370;2023-04-25T03:34:09;40.40;;;33.67;;
12601;SDS011;30282;16.436;99.370;2023-04-25T03:36:40;38.00;;;32.10;;
12601;SDS011;30282;16.436;99.370;2023-04-25T03:39:09;34.50;;;30.90;;
12601;SDS011;30282;16.436;99.370;2023-04-25T03:41:38;39.43;;;32.77;;
12601;SDS011;30282;16.436;99.370;2023-04-25T03:44:07;45.17;;;32.43;;
12601;SDS011;30282;16.436;99.370;2023-04-25T03:46:38;34.97;;;31.10;;
12601;SDS011;30282;16.436;99.370;2023-04-25T03:49:07;39.43;;;32.80;;
12601;SDS011;30282;16.436;99.370;2023-04-25T03:51:37;41.73;;;34.47;;
12601;SDS011;30282;16.436;99.370;2023-04-25T03:54:06;46.10;;;34.70;;
12601;SDS011;30282;16.436;99.370;2023-04-25T03:56:35;51.30;;;34.80;;
12601;SDS011;30282;16.436;99.370;2023-04-25T03:59:04;48.57;;;33.83;;
12601;SDS011;30282;16.436;99.370;2023-04-25T04:01:33;50.23;;;34.93;;
12601;SDS011;30282;16.436;99.370;2023-04-25T04:04:05;41.83;;;33.63;;
12601;SDS011;30282;16.436;99.370;2023-04-25T04:06:34;41.60;;;34.83;;
12601;SDS011;30282;16.436;99.370;2023-04-25T04:09:03;41.17;;;34.90;;
12601;SDS011;30282;16.436;99.370;2023-04-25T04:11:35;36.67;;;33.07;;
12601;SDS011;30282;16.436;99.370;2023-04-25T04:14:05;40.70;;;33.57;;
12601;SDS011;30282;16.436;99.370;2023-04-25T04:16:35;40.07;;;33.30;;
12601;SDS011;30282;16.436;99.370;2023-04-25T04:19:06;41.50;;;34.50;;
12601;SDS011;30282;16.436;99.370;2023-04-25T04:21:35;41.53;;;35.80;;
12601;SDS011;30282;16.436;99.370;2023-04-25T04:24:05;38.70;;;33.97;;
12601;SDS011;30282;16.436;99.370;2023-04-25T04:26:34;39.73;;;35.73;;
12601;SDS011;30282;16.436;99.370;2023-04-25T04:29:04;38.30;;;31.97;;
12601;SDS011;30282;16.436;99.370;2023-04-25T04:31:34;42.00;;;34.20;;
12601;SDS011;30282;16.436;99.370;2023-04-25T04:34:03;35.60;;;31.80;;
12601;SDS011;30282;16.436;99.370;2023-04-25T04:36:38;38.70;;;32.80;;
12601;SDS011;30282;16.436;99.370;2023-04-25T04:39:07;36.17;;;32.20;;
12601;SDS011;30282;16.436;99.370;2023-04-25T04:41:37;35.37;;;31.47;;
12601;SDS011;30282;16.436;99.370;2023-04-25T04:44:06;38.33;;;32.13;;
12601;SDS011;30282;16.436;99.370;2023-04-25T04:46:35;39.40;;;33.07;;
12601;SDS011;30282;16.436;99.370;2023-04-25T04:49:09;37.93;;;31.90;;
12601;SDS011;30282;16.436;99.370;2023-04-25T04:51:39;35.83;;;30.27;;
12601;SDS011;30282;16.436;99.370;2023-04-25T04:54:10;36.17;;;31.13;;
12601;SDS011;30282;16.436;99.370;2023-04-25T04:56:39;37.63;;;31.03;;
12601;SDS011;30282;16.436;99.370;2023-04-25T04:59:09;41.77;;;32.70;;
12601;SDS011;30282;16.436;99.370;2023-04-25T05:01:38;36.77;;;32.73;;
12601;SDS011;30282;16.436;99.370;2023-04-25T05:04:09;42.53;;;33.53;;
12601;SDS011;30282;16.436;99.370;2023-04-25T05:06:41;34.67;;;30.40;;
12601;SDS011;30282;16.436;99.370;2023-04-25T05:09:10;36.87;;;32.00;;
12601;SDS011;30282;16.436;99.370;2023-04-25T05:11:40;44.17;;;30.20;;
12601;SDS011;30282;16.436;99.370;2023-04-25T05:14:09;32.47;;;28.97;;
12601;SDS011;30282;16.436;99.370;2023-04-25T05:16:39;33.17;;;29.67;;
12601;SDS011;30282;16.436;99.370;2023-04-25T05:19:09;32.97;;;29.43;;
12601;SDS011;30282;16.436;99.370;2023-04-25T05:21:39;32.90;;;29.27;;
12601;SDS011;30282;16.436;99.370;2023-04-25T05:24:08;32.70;;;29.13;;
12601;SDS011;30282;16.436;99.370;2023-04-25T05:26:38;33.63;;;30.07;;
12601;SDS011;30282;16.436;99.370;2023-04-25T05:29:07;32.80;;;29.50;;
12601;SDS011;30282;16.436;99.370;2023-04-25T05:31:36;33.47;;;29.90;;
12601;SDS011;30282;16.436;99.370;2023-04-25T05:34:05;33.13;;;29.30;;
12601;SDS011;30282;16.436;99.370;2023-04-25T05:36:36;33.07;;;29.07;;
12601;SDS011;30282;16.436;99.370;2023-04-25T05:39:05;34.87;;;29.70;;
12601;SDS011;30282;16.436;99.370;2023-04-25T05:41:34;37.57;;;28.90;;
12601;SDS011;30282;16.436;99.370;2023-04-25T05:44:03;33.67;;;30.03;;
12601;SDS011;30282;16.436;99.370;2023-04-25T05:46:33;32.30;;;28.80;;
12601;SDS011;30282;16.436;99.370;2023-04-25T05:49:02;31.13;;;27.90;;
12601;SDS011;30282;16.436;99.370;2023-04-25T05:51:31;35.50;;;29.07;;
12601;SDS011;30282;16.436;99.370;2023-04-25T05:54:02;36.83;;;29.17;;
12601;SDS011;30282;16.436;99.370;2023-04-25T05:56:31;31.03;;;27.43;;
12601;SDS011;30282;16.436;99.370;2023-04-25T05:59:00;34.80;;;28.50;;
12601;SDS011;30282;16.436;99.370;2023-04-25T06:01:29;34.17;;;29.63;;
12601;SDS011;30282;16.436;99.370;2023-04-25T06:03:59;34.20;;;27.70;;
12601;SDS011;30282;16.436;99.370;2023-04-25T06:06:28;30.10;;;26.90;;
12601;SDS011;30282;16.436;99.370;2023-04-25T06:08:57;32.10;;;28.30;;
12601;SDS011;30282;16.436;99.370;2023-04-25T06:11:28;36.93;;;28.33;;
12601;SDS011;30282;16.436;99.370;2023-04-25T06:13:57;31.13;;;28.03;;
12601;SDS011;30282;16.436;99.370;2023-04-25T06:16:26;30.20;;;27.10;;
12601;SDS011;30282;16.436;99.370;2023-04-25T06:18:55;36.47;;;28.80;;
12601;SDS011;30282;16.436;99.370;2023-04-25T06:21:25;31.10;;;27.20;;
12601;SDS011;30282;16.436;99.370;2023-04-25T06:23:54;36.23;;;31.20;;
12601;SDS011;30282;16.436;99.370;2023-04-25T06:26:23;36.60;;;29.93;;
12601;SDS011;30282;16.436;99.370;2023-04-25T06:28:54;31.30;;;27.90;;
12601;SDS011;30282;16.436;99.370;2023-04-25T06:31:23;30.10;;;27.00;;
12601;SDS011;30282;16.436;99.370;2023-04-25T06:33:53;31.93;;;27.07;;
12601;SDS011;30282;16.436;99.370;2023-04-25T06:36:22;30.60;;;27.40;;
12601;SDS011;30282;16.436;99.370;2023-04-25T06:38:51;30.90;;;27.60;;
12601;SDS011;30282;16.436;99.370;2023-04-25T06:41:21;29.10;;;26.10;;
12601;SDS011;30282;16.436;99.370;2023-04-25T06:43:50;33.07;;;29.47;;
12601;SDS011;30282;16.436;99.370;2023-04-25T06:46:21;30.37;;;27.00;;
12601;SDS011;30282;16.436;99.370;2023-04-25T06:48:50;30.80;;;27.70;;
12601;SDS011;30282;16.436;99.370;2023-04-25T06:51:19;32.40;;;26.90;;
12601;SDS011;30282;16.436;99.370;2023-04-25T06:53:50;29.63;;;26.43;;
12601;SDS011;30282;16.436;99.370;2023-04-25T06:56:19;29.77;;;26.73;;
12601;SDS011;30282;16.436;99.370;2023-04-25T06:58:49;30.80;;;27.57;;
12601;SDS011;30282;16.436;99.370;2023-04-25T07:01:18;28.93;;;26.13;;
12601;SDS011;30282;16.436;99.370;2023-04-25T07:03:49;31.00;;;27.60;;
12601;SDS011;30282;16.436;99.370;2023-04-25T07:06:18;31.03;;;27.07;;
12601;SDS011;30282;16.436;99.370;2023-04-25T07:08:47;29.57;;;26.67;;
12601;SDS011;30282;16.436;99.370;2023-04-25T07:11:16;27.50;;;24.80;;
12601;SDS011;30282;16.436;99.370;2023-04-25T07:13:46;33.20;;;24.60;;
12601;SDS011;30282;16.436;99.370;2023-04-25T07:16:15;28.77;;;25.70;;
12601;SDS011;30282;16.436;99.370;2023-04-25T07:18:47;29.20;;;26.10;;
12601;SDS011;30282;16.436;99.370;2023-04-25T07:21:19;28.83;;;25.30;;
12601;SDS011;30282;16.436;99.370;2023-04-25T07:23:51;33.67;;;25.13;;
12601;SDS011;30282;16.436;99.370;2023-04-25T07:26:20;26.87;;;24.20;;
12601;SDS011;30282;16.436;99.370;2023-04-25T07:28:49;28.93;;;25.93;;
12601;SDS011;30282;16.436;99.370;2023-04-25T07:31:18;28.23;;;25.27;;
12601;SDS011;30282;16.436;99.370;2023-04-25T07:33:49;30.67;;;27.67;;
12601;SDS011;30282;16.436;99.370;2023-04-25T07:36:19;26.50;;;24.00;;
12601;SDS011;30282;16.436;99.370;2023-04-25T07:38:50;29.80;;;26.00;;
12601;SDS011;30282;16.436;99.370;2023-04-25T07:41:25;32.00;;;27.77;;
12601;SDS011;30282;16.436;99.370;2023-04-25T07:43:56;29.90;;;26.80;;
12601;SDS011;30282;16.436;99.370;2023-04-25T07:46:26;29.70;;;26.57;;
12601;SDS011;30282;16.436;99.370;2023-04-25T07:48:56;38.40;;;27.87;;
12601;SDS011;30282;16.436;99.370;2023-04-25T07:51:26;31.93;;;28.50;;
12601;SDS011;30282;16.436;99.370;2023-04-25T07:53:55;36.07;;;26.67;;
12601;SDS011;30282;16.436;99.370;2023-04-25T07:56:25;34.20;;;25.63;;
12601;SDS011;30282;16.436;99.370;2023-04-25T07:58:57;29.17;;;26.20;;
12601;SDS011;30282;16.436;99.370;2023-04-25T08:01:29;34.93;;;28.40;;
12601;SDS011;30282;16.436;99.370;2023-04-25T08:04:05;32.90;;;28.20;;
12601;SDS011;30282;16.436;99.370;2023-04-25T08:06:35;34.30;;;27.97;;
12601;SDS011;30282;16.436;99.370;2023-04-25T08:09:04;44.60;;;28.13;;
12601;SDS011;30282;16.436;99.370;2023-04-25T08:11:33;30.97;;;27.53;;
12601;SDS011;30282;16.436;99.370;2023-04-25T08:14:03;40.53;;;27.27;;
12601;SDS011;30282;16.436;99.370;2023-04-25T08:16:32;32.60;;;28.70;;
12601;SDS011;30282;16.436;99.370;2023-04-25T08:19:02;31.17;;;27.90;;
12601;SDS011;30282;16.436;99.370;2023-04-25T08:21:33;31.73;;;28.13;;
12601;SDS011;30282;16.436;99.370;2023-04-25T08:24:02;36.97;;;28.80;;
12601;SDS011;30282;16.436;99.370;2023-04-25T08:26:32;36.83;;;27.60;;
12601;SDS011;30282;16.436;99.370;2023-04-25T08:29:02;34.50;;;28.13;;
12601;SDS011;30282;16.436;99.370;2023-04-25T08:31:32;32.90;;;29.60;;
12601;SDS011;30282;16.436;99.370;2023-04-25T08:34:06;41.90;;;27.13;;
12601;SDS011;30282;16.436;99.370;2023-04-25T08:36:35;30.70;;;26.13;;
12601;SDS011;30282;16.436;99.370;2023-04-25T08:39:04;38.47;;;26.60;;
12601;SDS011;30282;16.436;99.370;2023-04-25T08:41:33;40.73;;;26.03;;
12601;SDS011;30282;16.436;99.370;2023-04-25T08:44:04;28.63;;;25.83;;
12601;SDS011;30282;16.436;99.370;2023-04-25T08:46:34;31.20;;;27.80;;
12601;SDS011;30282;16.436;99.370;2023-04-25T08:49:07;30.93;;;27.07;;
12601;SDS011;30282;16.436;99.370;2023-04-25T08:51:39;29.53;;;26.43;;
12601;SDS011;30282;16.436;99.370;2023-04-25T08:54:15;29.23;;;26.10;;
12601;SDS011;30282;16.436;99.370;2023-04-25T08:56:47;29.47;;;25.80;;
12601;SDS011;30282;16.436;99.370;2023-04-25T08:59:17;29.13;;;26.10;;
12601;SDS011;30282;16.436;99.370;2023-04-25T09:01:46;29.20;;;26.10;;
12601;SDS011;30282;16.436;99.370;2023-04-25T09:04:19;32.03;;;26.20;;
12601;SDS011;30282;16.436;99.370;2023-04-25T09:06:48;28.83;;;24.97;;
12601;SDS011;30282;16.436;99.370;2023-04-25T09:09:17;30.50;;;25.03;;
12601;SDS011;30282;16.436;99.370;2023-04-25T09:11:47;27.20;;;24.43;;
12601;SDS011;30282;16.436;99.370;2023-04-25T09:14:16;29.77;;;25.97;;
12601;SDS011;30282;16.436;99.370;2023-04-25T09:16:57;28.33;;;25.23;;
12601;SDS011;30282;16.436;99.370;2023-04-25T09:19:29;30.10;;;25.13;;
12601;SDS011;30282;16.436;99.370;2023-04-25T09:21:59;28.80;;;25.60;;
12601;SDS011;30282;16.436;99.370;2023-04-25T09:24:33;28.97;;;25.50;;
12601;SDS011;30282;16.436;99.370;2023-04-25T09:27:04;30.87;;;25.50;;
12601;SDS011;30282;16.436;99.370;2023-04-25T09:29:34;30.10;;;25.53;;
12601;SDS011;30282;16.436;99.370;2023-04-25T09:34:58;30.27;;;23.50;;
12601;SDS011;30282;16.436;99.370;2023-04-25T09:37:28;29.63;;;23.73;;
12601;SDS011;30282;16.436;99.370;2023-04-25T09:39:58;28.10;;;24.43;;
12601;SDS011;30282;16.436;99.370;2023-04-25T09:42:31;28.33;;;25.23;;
12601;SDS011;30282;16.436;99.370;2023-04-25T09:45:01;29.93;;;26.20;;
12601;SDS011;30282;16.436;99.370;2023-04-25T09:47:31;35.60;;;25.90;;
12601;SDS011;30282;16.436;99.370;2023-04-25T09:50:13;30.30;;;27.13;;
12601;SDS011;30282;16.436;99.370;2023-04-25T09:52:43;32.87;;;26.50;;
12601;SDS011;30282;16.436;99.370;2023-04-25T09:55:12;30.37;;;27.10;;
12601;SDS011;30282;16.436;99.370;2023-04-25T09:57:41;30.07;;;24.73;;
12601;SDS011;30282;16.436;99.370;2023-04-25T10:00:14;33.10;;;26.97;;
12601;SDS011;30282;16.436;99.370;2023-04-25T10:02:44;36.00;;;27.03;;
12601;SDS011;30282;16.436;99.370;2023-04-25T10:05:20;32.17;;;27.77;;
12601;SDS011;30282;16.436;99.370;2023-04-25T10:07:50;36.53;;;27.60;;
12601;SDS011;30282;16.436;99.370;2023-04-25T10:10:21;31.40;;;26.80;;
12601;SDS011;30282;16.436;99.370;2023-04-25T10:12:53;31.77;;;27.33;;
12601;SDS011;30282;16.436;99.370;2023-04-25T10:15:22;31.73;;;26.07;;
12601;SDS011;30282;16.436;99.370;2023-04-25T10:17:52;39.97;;;26.50;;
12601;SDS011;30282;16.436;99.370;2023-04-25T10:20:23;29.70;;;26.53;;
12601;SDS011;30282;16.436;99.370;2023-04-25T10:22:53;29.57;;;26.47;;
12601;SDS011;30282;16.436;99.370;2023-04-25T10:25:25;39.87;;;28.40;;
12601;SDS011;30282;16.436;99.370;2023-04-25T10:27:55;37.20;;;28.30;;
12601;SDS011;30282;16.436;99.370;2023-04-25T10:30:59;39.83;;;28.40;;
12601;SDS011;30282;16.436;99.370;2023-04-25T10:33:30;33.13;;;29.00;;
12601;SDS011;30282;16.436;99.370;2023-04-25T10:36:10;34.83;;;28.30;;
12601;SDS011;30282;16.436;99.370;2023-04-25T10:38:53;40.33;;;28.40;;
12601;SDS011;30282;16.436;99.370;2023-04-25T10:41:23;36.20;;;28.27;;
12601;SDS011;30282;16.436;99.370;2023-04-25T10:43:59;34.83;;;27.30;;
12601;SDS011;30282;16.436;99.370;2023-04-25T10:46:30;37.30;;;28.47;;
12601;SDS011;30282;16.436;99.370;2023-04-25T10:49:02;30.00;;;26.73;;
12601;SDS011;30282;16.436;99.370;2023-04-25T10:51:33;30.97;;;26.27;;
12601;SDS011;30282;16.436;99.370;2023-04-25T10:54:04;29.57;;;24.97;;
12601;SDS011;30282;16.436;99.370;2023-04-25T10:56:36;27.47;;;23.83;;
12601;SDS011;30282;16.436;99.370;2023-04-25T10:59:07;27.10;;;24.23;;
12601;SDS011;30282;16.436;99.370;2023-04-25T11:01:38;35.30;;;24.70;;
12601;SDS011;30282;16.436;99.370;2023-04-25T11:07:04;44.10;;;25.87;;
12601;SDS011;30282;16.436;99.370;2023-04-25T11:09:40;48.27;;;26.97;;
12601;SDS011;30282;16.436;99.370;2023-04-25T11:12:10;49.47;;;26.57;;
12601;SDS011;30282;16.436;99.370;2023-04-25T11:14:39;43.03;;;27.93;;
12601;SDS011;30282;16.436;99.370;2023-04-25T11:17:08;37.80;;;27.93;;
12601;SDS011;30282;16.436;99.370;2023-04-25T11:19:38;35.53;;;26.90;;
12601;SDS011;30282;16.436;99.370;2023-04-25T11:22:09;33.93;;;27.67;;
12601;SDS011;30282;16.436;99.370;2023-04-25T11:24:39;43.10;;;29.00;;
12601;SDS011;30282;16.436;99.370;2023-04-25T11:27:09;38.40;;;27.93;;
12601;SDS011;30282;16.436;99.370;2023-04-25T11:29:38;29.87;;;26.67;;
12601;SDS011;30282;16.436;99.370;2023-04-25T11:32:08;37.97;;;26.57;;
12601;SDS011;30282;16.436;99.370;2023-04-25T11:34:37;35.47;;;27.77;;
12601;SDS011;30282;16.436;99.370;2023-04-25T11:37:08;32.67;;;29.17;;
12601;SDS011;30282;16.436;99.370;2023-04-25T11:39:38;37.23;;;31.20;;
12601;SDS011;30282;16.436;99.370;2023-04-25T11:42:11;43.37;;;32.93;;
12601;SDS011;30282;16.436;99.370;2023-04-25T11:44:40;37.10;;;33.10;;
12601;SDS011;30282;16.436;99.370;2023-04-25T11:47:10;45.47;;;36.20;;
12601;SDS011;30282;16.436;99.370;2023-04-25T11:49:39;42.03;;;35.10;;
12601;SDS011;30282;16.436;99.370;2023-04-25T11:52:10;57.77;;;36.57;;
12601;SDS011;30282;16.436;99.370;2023-04-25T11:54:39;50.47;;;36.27;;
12601;SDS011;30282;16.436;99.370;2023-04-25T11:57:08;59.53;;;35.63;;
12601;SDS011;30282;16.436;99.370;2023-04-25T11:59:39;43.10;;;36.37;;
12601;SDS011;30282;16.436;99.370;2023-04-25T12:02:23;40.77;;;33.27;;
12601;SDS011;30282;16.436;99.370;2023-04-25T12:04:53;38.90;;;33.33;;
12601;SDS011;30282;16.436;99.370;2023-04-25T12:07:30;37.83;;;32.37;;
12601;SDS011;30282;16.436;99.370;2023-04-25T12:09:59;38.20;;;31.60;;
12601;SDS011;30282;16.436;99.370;2023-04-25T12:12:32;39.23;;;31.37;;
12601;SDS011;30282;16.436;99.370;2023-04-25T12:15:11;44.27;;;32.57;;
12601;SDS011;30282;16.436;99.370;2023-04-25T12:17:45;44.03;;;31.93;;
12601;SDS011;30282;16.436;99.370;2023-04-25T12:20:15;40.10;;;31.33;;
12601;SDS011;30282;16.436;99.370;2023-04-25T12:22:47;47.47;;;32.87;;
12601;SDS011;30282;16.436;99.370;2023-04-25T12:28:13;35.67;;;31.57;;
12601;SDS011;30282;16.436;99.370;2023-04-25T12:30:55;42.13;;;32.17;;
12601;SDS011;30282;16.436;99.370;2023-04-25T12:33:25;40.67;;;33.90;;
12601;SDS011;30282;16.436;99.370;2023-04-25T12:35:55;44.13;;;33.37;;
12601;SDS011;30282;16.436;99.370;2023-04-25T12:38:26;43.37;;;32.70;;
12601;SDS011;30282;16.436;99.370;2023-04-25T12:40:56;49.93;;;32.40;;
12601;SDS011;30282;16.436;99.370;2023-04-25T12:43:26;42.23;;;32.50;;
12601;SDS011;30282;16.436;99.370;2023-04-25T12:45:55;43.03;;;33.50;;
12601;SDS011;30282;16.436;99.370;2023-04-25T12:48:25;48.40;;;33.60;;
12601;SDS011;30282;16.436;99.370;2023-04-25T12:50:54;38.93;;;31.00;;
12601;SDS011;30282;16.436;99.370;2023-04-25T12:53:23;40.27;;;32.03;;
12601;SDS011;30282;16.436;99.370;2023-04-25T12:55:54;38.57;;;32.27;;
12601;SDS011;30282;16.436;99.370;2023-04-25T12:58:23;39.70;;;32.17;;
12601;SDS011;30282;16.436;99.370;2023-04-25T13:00:52;45.33;;;36.17;;
12601;SDS011;30282;16.436;99.370;2023-04-25T13:03:21;44.13;;;34.00;;
12601;SDS011;30282;16.436;99.370;2023-04-25T13:05:51;54.57;;;37.00;;
12601;SDS011;30282;16.436;99.370;2023-04-25T13:08:23;53.90;;;38.60;;
12601;SDS011;30282;16.436;99.370;2023-04-25T13:10:54;43.60;;;35.03;;
12601;SDS011;30282;16.436;99.370;2023-04-25T13:13:23;48.00;;;34.67;;
12601;SDS011;30282;16.436;99.370;2023-04-25T13:15:54;43.90;;;35.83;;
12601;SDS011;30282;16.436;99.370;2023-04-25T13:18:23;44.03;;;36.20;;
12601;SDS011;30282;16.436;99.370;2023-04-25T13:20:53;52.97;;;36.13;;
12601;SDS011;30282;16.436;99.370;2023-04-25T13:23:22;51.97;;;39.50;;
12601;SDS011;30282;16.436;99.370;2023-04-25T13:25:57;59.30;;;39.93;;
12601;SDS011;30282;16.436;99.370;2023-04-25T13:28:28;53.17;;;38.43;;
12601;SDS011;30282;16.436;99.370;2023-04-25T13:30:57;54.23;;;39.47;;
12601;SDS011;30282;16.436;99.370;2023-04-25T13:33:26;56.60;;;41.40;;
12601;SDS011;30282;16.436;99.370;2023-04-25T13:35:56;54.73;;;38.53;;
12601;SDS011;30282;16.436;99.370;2023-04-25T13:41:14;49.90;;;39.33;;
12601;SDS011;30282;16.436;99.370;2023-04-25T13:43:49;52.63;;;40.63;;
12601;SDS011;30282;16.436;99.370;2023-04-25T13:46:19;53.03;;;38.57;;
12601;SDS011;30282;16.436;99.370;2023-04-25T13:48:48;48.50;;;39.07;;
12601;SDS011;30282;16.436;99.370;2023-04-25T13:51:19;46.50;;;39.30;;
12601;SDS011;30282;16.436;99.370;2023-04-25T13:53:50;56.20;;;39.27;;
12601;SDS011;30282;16.436;99.370;2023-04-25T13:56:21;55.23;;;35.13;;
12601;SDS011;30282;16.436;99.370;2023-04-25T13:58:53;46.90;;;34.20;;
12601;SDS011;30282;16.436;99.370;2023-04-25T14:01:22;42.80;;;35.17;;
12601;SDS011;30282;16.436;99.370;2023-04-25T14:03:52;49.37;;;36.77;;
12601;SDS011;30282;16.436;99.370;2023-04-25T14:06:21;47.00;;;35.00;;
12601;SDS011;30282;16.436;99.370;2023-04-25T14:08:52;48.23;;;34.83;;
12601;SDS011;30282;16.436;99.370;2023-04-25T14:11:22;43.17;;;34.63;;
12601;SDS011;30282;16.436;99.370;2023-04-25T14:13:51;43.73;;;34.23;;
12601;SDS011;30282;16.436;99.370;2023-04-25T14:16:20;44.90;;;33.50;;
12601;SDS011;30282;16.436;99.370;2023-04-25T14:18:52;40.77;;;35.60;;
12601;SDS011;30282;16.436;99.370;2023-04-25T14:21:21;43.87;;;34.57;;
12601;SDS011;30282;16.436;99.370;2023-04-25T14:23:52;42.97;;;33.67;;
12601;SDS011;30282;16.436;99.370;2023-04-25T14:26:21;42.43;;;33.43;;
12601;SDS011;30282;16.436;99.370;2023-04-25T14:28:51;75.53;;;37.53;;
12601;SDS011;30282;16.436;99.370;2023-04-25T14:31:20;49.43;;;32.70;;
12601;SDS011;30282;16.436;99.370;2023-04-25T14:33:49;38.10;;;33.63;;
12601;SDS011;30282;16.436;99.370;2023-04-25T14:36:18;45.33;;;33.47;;
12601;SDS011;30282;16.436;99.370;2023-04-25T14:38:53;44.23;;;33.20;;